Terminal Aerodrome Forecast
Issued by NWS

Home | Current Version | Previous Version | Graphics & Text | Print | Product List | Glossary On
Versions: 1 2 3 4 5 6 7 8 9 10 11 12 13 14 15 16 17 18 19 20 21
000
FTUS43 KIWX 192000 AAA
TAFSBN
TAF AMD
KSBN 192045Z 1921/2018 23010KT P6SM SCT030 BKN250
     FM200000 22006KT P6SM SCT050
     FM200600 23005KT 3SM BR SCT020
     FM201400 27010KT P6SM SCT025=

USA.gov is the U.S. government's official web portal to all federal, state and local government web resources and services.